Meteorología y climatología de Navarra
Datos de la estación - Meteo Navarra

Estación de Goizueta GN

Altitud 142 m.


Datos desde el 30/06/2020 hasta el 01/07/2020 en horario solar
Los datos son PROVISIONALES

Anterior Página 1 de 1 Siguiente Descargar: Formato para Excel 2000 o superior   Formato csv   Formato para OpenOffice Calc
Fecha Temperatura Humedad relativa Radiación global Insolación Precipitación Vel. viento 10 m Vel. viento 10 m Dir. viento 10 m
ºC % W/m² s l/m² m/s km/h º
30/06/2020 0:00 13.8 99 - - - - 0.0 - - - - - -
30/06/2020 0:10 13.6 99 - - - - 0.0 - - - - - -
30/06/2020 0:20 13.4 99 - - - - 0.0 - - - - - -
30/06/2020 0:30 13.4 99 - - - - 0.0 - - - - - -
30/06/2020 0:40 13.4 99 - - - - 0.0 - - - - - -
30/06/2020 0:50 13.5 99 - - - - 0.0 - - - - - -
30/06/2020 1:00 13.6 99 - - - - 0.0 - - - - - -
30/06/2020 1:10 13.5 99 - - - - 0.0 - - - - - -
30/06/2020 1:20 13.4 99 - - - - 0.0 - - - - - -
30/06/2020 1:30 13.3 99 - - - - 0.0 - - - - - -
30/06/2020 1:40 13.2 99 - - - - 0.0 - - - - - -
30/06/2020 1:50 13.4 99 - - - - 0.0 - - - - - -
30/06/2020 2:00 13.3 99 - - - - 0.0 - - - - - -
30/06/2020 2:10 13.3 99 - - - - 0.0 - - - - - -
30/06/2020 2:20 13.2 99 - - - - 0.0 - - - - - -
30/06/2020 2:30 13.2 99 - - - - 0.0 - - - - - -
30/06/2020 2:40 13.1 99 - - - - 0.0 - - - - - -
30/06/2020 2:50 13.0 99 - - - - 0.0 - - - - - -
30/06/2020 3:00 12.8 99 - - - - 0.0 - - - - - -
30/06/2020 3:10 12.8 99 - - - - 0.0 - - - - - -
30/06/2020 3:20 12.8 99 - - - - 0.0 - - - - - -
30/06/2020 3:30 12.8 99 - - - - 0.0 - - - - - -
30/06/2020 3:40 12.6 99 - - - - 0.0 - - - - - -
30/06/2020 3:50 12.6 99 - - - - 0.0 - - - - - -
30/06/2020 4:00 12.5 99 - - - - 0.0 - - - - - -
30/06/2020 4:10 12.4 99 - - - - 0.0 - - - - - -
30/06/2020 4:20 12.4 99 - - - - 0.0 - - - - - -
30/06/2020 4:30 12.5 99 - - - - 0.0 - - - - - -
30/06/2020 4:40 12.4 99 - - - - 0.0 - - - - - -
30/06/2020 4:50 12.4 99 - - - - 0.0 - - - - - -
30/06/2020 5:00 12.2 99 - - - - 0.0 - - - - - -
30/06/2020 5:10 12.2 99 - - - - 0.0 - - - - - -
30/06/2020 5:20 12.2 100 - - - - 0.0 - - - - - -
30/06/2020 5:30 12.2 99 - - - - 0.0 - - - - - -
30/06/2020 5:40 12.1 100 - - - - 0.0 - - - - - -
30/06/2020 5:50 12.1 99 - - - - 0.0 - - - - - -
30/06/2020 6:00 12.0 100 - - - - 0.0 - - - - - -
30/06/2020 6:10 12.0 100 - - - - 0.0 - - - - - -
30/06/2020 6:20 11.9 99 - - - - 0.0 - - - - - -
30/06/2020 6:30 12.0 99 - - - - 0.0 - - - - - -
30/06/2020 6:40 12.2 100 - - - - 0.0 - - - - - -
30/06/2020 6:50 13.0 100 - - - - 0.0 - - - - - -
30/06/2020 7:00 13.6 99 - - - - 0.0 - - - - - -
30/06/2020 7:10 14.4 99 - - - - 0.0 - - - - - -
30/06/2020 7:20 15.3 95 - - - - 0.0 - - - - - -
30/06/2020 7:30 16.7 89 - - - - 0.0 - - - - - -
30/06/2020 7:40 17.9 83 - - - - 0.0 - - - - - -
30/06/2020 7:50 18.7 81 - - - - 0.0 - - - - - -
30/06/2020 8:00 19.2 79 - - - - 0.0 - - - - - -
30/06/2020 8:10 19.5 77 - - - - 0.0 - - - - - -
30/06/2020 8:20 19.7 76 - - - - 0.0 - - - - - -
30/06/2020 8:30 20.1 75 - - - - 0.0 - - - - - -
30/06/2020 8:40 20.6 73 - - - - 0.0 - - - - - -
30/06/2020 8:50 21.2 71 - - - - 0.0 - - - - - -
30/06/2020 9:00 21.5 71 - - - - 0.0 - - - - - -
30/06/2020 9:10 21.9 68 - - - - 0.0 - - - - - -
30/06/2020 9:20 22.3 66 - - - - 0.0 - - - - - -
30/06/2020 9:30 22.3 65 - - - - 0.0 - - - - - -
30/06/2020 9:40 22.6 66 - - - - 0.0 - - - - - -
30/06/2020 9:50 23.1 64 - - - - 0.0 - - - - - -
30/06/2020 10:00 23.3 63 - - - - 0.0 - - - - - -
30/06/2020 10:10 23.8 62 - - - - 0.0 - - - - - -
30/06/2020 10:20 24.0 61 - - - - 0.0 - - - - - -
30/06/2020 10:30 24.4 58 - - - - 0.0 - - - - - -
30/06/2020 10:40 24.6 59 - - - - 0.0 - - - - - -
30/06/2020 10:50 24.9 59 - - - - 0.0 - - - - - -
30/06/2020 11:00 25.1 59 - - - - 0.0 - - - - - -
30/06/2020 11:10 25.1 62 - - - - 0.0 - - - - - -
30/06/2020 11:20 25.1 62 - - - - 0.0 - - - - - -
30/06/2020 11:30 25.3 62 - - - - 0.0 - - - - - -
30/06/2020 11:40 25.6 63 - - - - 0.0 - - - - - -
30/06/2020 11:50 25.5 64 - - - - 0.0 - - - - - -
30/06/2020 12:00 25.5 64 - - - - 0.0 - - - - - -
30/06/2020 12:10 25.6 65 - - - - 0.0 - - - - - -
30/06/2020 12:20 25.6 64 - - - - 0.0 - - - - - -
30/06/2020 12:30 26.0 64 - - - - 0.0 - - - - - -
30/06/2020 12:40 26.0 64 - - - - 0.0 - - - - - -
30/06/2020 12:50 26.1 64 - - - - 0.0 - - - - - -
30/06/2020 13:00 26.0 63 - - - - 0.0 - - - - - -
30/06/2020 13:10 25.6 64 - - - - 0.0 - - - - - -
30/06/2020 13:20 26.0 63 - - - - 0.0 - - - - - -
30/06/2020 13:30 25.7 63 - - - - 0.0 - - - - - -
30/06/2020 13:40 26.1 62 - - - - 0.0 - - - - - -
30/06/2020 13:50 26.0 62 - - - - 0.0 - - - - - -
30/06/2020 14:00 26.4 61 - - - - 0.0 - - - - - -
30/06/2020 14:10 26.3 62 - - - - 0.0 - - - - - -
30/06/2020 14:20 26.7 60 - - - - 0.0 - - - - - -
30/06/2020 14:30 27.0 61 - - - - 0.0 - - - - - -
30/06/2020 14:40 27.2 60 - - - - 0.0 - - - - - -
30/06/2020 14:50 26.9 61 - - - - 0.0 - - - - - -
30/06/2020 15:00 27.1 60 - - - - 0.0 - - - - - -
30/06/2020 15:10 27.1 59 - - - - 0.0 - - - - - -
30/06/2020 15:20 26.9 61 - - - - 0.0 - - - - - -
30/06/2020 15:30 27.1 60 - - - - 0.0 - - - - - -
30/06/2020 15:40 27.1 60 - - - - 0.0 - - - - - -
30/06/2020 15:50 27.0 61 - - - - 0.0 - - - - - -
30/06/2020 16:00 26.7 62 - - - - 0.0 - - - - - -
30/06/2020 16:10 26.4 63 - - - - 0.0 - - - - - -
30/06/2020 16:20 26.4 63 - - - - 0.0 - - - - - -
30/06/2020 16:30 26.3 64 - - - - 0.0 - - - - - -
30/06/2020 16:40 25.8 64 - - - - 0.0 - - - - - -
30/06/2020 16:50 26.0 66 - - - - 0.0 - - - - - -
30/06/2020 17:00 25.9 65 - - - - 0.0 - - - - - -
30/06/2020 17:10 25.1 68 - - - - 0.0 - - - - - -
30/06/2020 17:20 24.6 69 - - - - 0.0 - - - - - -
30/06/2020 17:30 24.2 72 - - - - 0.0 - - - - - -
30/06/2020 17:40 23.7 75 - - - - 0.0 - - - - - -
30/06/2020 17:50 23.2 77 - - - - 0.0 - - - - - -
30/06/2020 18:00 22.9 80 - - - - 0.0 - - - - - -
30/06/2020 18:10 22.5 82 - - - - 0.0 - - - - - -
30/06/2020 18:20 22.4 83 - - - - 0.0 - - - - - -
30/06/2020 18:30 22.1 84 - - - - 0.0 - - - - - -
30/06/2020 18:40 22.0 83 - - - - 0.0 - - - - - -
30/06/2020 18:50 21.9 85 - - - - 0.0 - - - - - -
30/06/2020 19:00 21.7 84 - - - - 0.0 - - - - - -
30/06/2020 19:10 21.5 86 - - - - 0.0 - - - - - -
30/06/2020 19:20 21.2 84 - - - - 0.0 - - - - - -
30/06/2020 19:30 21.2 84 - - - - 0.0 - - - - - -
30/06/2020 19:40 21.1 84 - - - - 0.0 - - - - - -
30/06/2020 19:50 20.9 84 - - - - 0.0 - - - - - -
30/06/2020 20:00 20.7 84 - - - - 0.0 - - - - - -
30/06/2020 20:10 20.4 86 - - - - 0.0 - - - - - -
30/06/2020 20:20 20.1 87 - - - - 0.0 - - - - - -
30/06/2020 20:30 19.9 89 - - - - 0.0 - - - - - -
30/06/2020 20:40 19.5 90 - - - - 0.0 - - - - - -
30/06/2020 20:50 19.2 91 - - - - 0.0 - - - - - -
30/06/2020 21:00 18.9 92 - - - - 0.0 - - - - - -
30/06/2020 21:10 18.7 93 - - - - 0.0 - - - - - -
30/06/2020 21:20 18.5 94 - - - - 0.0 - - - - - -
30/06/2020 21:30 18.3 95 - - - - 0.0 - - - - - -
30/06/2020 21:40 18.3 95 - - - - 0.0 - - - - - -
30/06/2020 21:50 18.4 95 - - - - 0.0 - - - - - -
30/06/2020 22:00 18.6 94 - - - - 0.0 - - - - - -
30/06/2020 22:10 18.7 94 - - - - 0.0 - - - - - -
30/06/2020 22:20 18.9 93 - - - - 0.0 - - - - - -
30/06/2020 22:30 18.9 93 - - - - 0.0 - - - - - -
30/06/2020 22:40 19.0 92 - - - - 0.0 - - - - - -
30/06/2020 22:50 19.0 92 - - - - 0.0 - - - - - -
30/06/2020 23:00 19.0 92 - - - - 0.0 - - - - - -
30/06/2020 23:10 19.0 92 - - - - 0.0 - - - - - -
30/06/2020 23:20 19.0 93 - - - - 0.0 - - - - - -
30/06/2020 23:30 19.0 93 - - - - 0.0 - - - - - -
30/06/2020 23:40 19.0 93 - - - - 0.0 - - - - - -
30/06/2020 23:50 18.9 93 - - - - 0.0 - - - - - -
Anterior Página 1 de 1 Siguiente

NOTA: Tipo de datos según el color:
   - Valores diarios o 10 minutos correctos
   - Valores diarios calculados a partir de un número de datos 10 minutos menor que 144 y mayor que 120, o de un número de datos semihorarios menor que 48 y mayor que 40 (caso de las estaciones de INTIA y del Ministerio)
   - Valores diez minutos estimados


Contacto        Enlaces        Aviso legal